createdAt,value
2023-04-15T00:01:00.371Z,10.11
2023-04-15T00:03:27.141Z,10.01
2023-04-15T00:05:53.850Z,9.89
2023-04-15T00:08:20.779Z,9.99
2023-04-15T00:10:48.061Z,10.02
2023-04-15T00:13:15.300Z,10.07
2023-04-15T00:15:42.418Z,10.11
2023-04-15T00:18:09.070Z,10.08
2023-04-15T00:20:35.822Z,10.13
2023-04-15T00:23:02.596Z,10.06
2023-04-15T00:25:29.051Z,9.96
2023-04-15T00:27:55.368Z,9.89
2023-04-15T00:30:22.538Z,9.85
2023-04-15T00:32:49.765Z,9.83
2023-04-15T00:35:16.531Z,9.79
2023-04-15T00:37:44.214Z,9.73
2023-04-15T00:40:12.846Z,9.73
2023-04-15T00:42:39.935Z,9.78
2023-04-15T00:45:07.167Z,9.96
2023-04-15T00:47:33.961Z,10.02
2023-04-15T00:50:00.478Z,10.08
2023-04-15T00:52:27.260Z,10.14
2023-04-15T00:54:53.681Z,10.05
2023-04-15T00:57:22.778Z,10.03
2023-04-15T00:59:49.458Z,10.06
2023-04-15T01:02:16.613Z,10.10
2023-04-15T01:04:43.481Z,10.12
2023-04-15T01:07:10.164Z,9.98
2023-04-15T01:09:36.531Z,9.88
2023-04-15T01:12:04.135Z,9.93
2023-04-15T01:14:30.714Z,9.94
2023-04-15T01:16:57.571Z,10.06
2023-04-15T01:19:24.283Z,10.13
2023-04-15T01:21:50.695Z,10.20
2023-04-15T01:24:18.492Z,10.17
2023-04-15T01:26:45.194Z,10.14
2023-04-15T01:29:11.633Z,10.02
2023-04-15T01:31:38.651Z,10.00
2023-04-15T01:34:05.049Z,10.00
2023-04-15T01:36:31.563Z,9.98
2023-04-15T01:38:58.474Z,10.02
2023-04-15T01:41:28.372Z,10.07
2023-04-15T01:43:55.202Z,10.16
2023-04-15T01:46:22.063Z,10.23
2023-04-15T01:48:48.404Z,10.22
2023-04-15T01:51:14.792Z,10.02
2023-04-15T01:53:41.348Z,9.85
2023-04-15T01:56:08.125Z,9.85
2023-04-15T01:58:34.488Z,9.83
2023-04-15T02:01:01.857Z,9.90
2023-04-15T02:03:29.603Z,9.86
2023-04-15T02:05:56.682Z,9.85
2023-04-15T02:08:23.175Z,9.94
2023-04-15T02:10:49.577Z,10.05
2023-04-15T02:13:17.241Z,10.14
2023-04-15T02:15:49.974Z,10.20
2023-04-15T02:18:16.815Z,10.21
2023-04-15T02:20:47.106Z,10.19
2023-04-15T02:23:13.819Z,10.10
2023-04-15T02:25:40.414Z,10.11
2023-04-15T02:28:06.728Z,10.11
2023-04-15T02:30:33.775Z,10.11
2023-04-15T02:33:00.648Z,10.13
2023-04-15T02:35:27.477Z,10.12
2023-04-15T02:37:54.791Z,10.11
2023-04-15T02:40:21.833Z,10.07
2023-04-15T02:42:48.203Z,10.07
2023-04-15T02:45:14.799Z,10.06
2023-04-15T02:47:41.969Z,10.09
2023-04-15T02:52:35.637Z,10.03
2023-04-15T02:55:02.630Z,10.06
2023-04-15T02:57:31.902Z,10.10
2023-04-15T02:59:58.244Z,10.15
2023-04-15T03:02:24.769Z,10.20
2023-04-15T03:04:51.415Z,10.09
2023-04-15T03:07:18.217Z,9.90
2023-04-15T03:09:45.183Z,9.76
2023-04-15T03:12:11.611Z,9.74
2023-04-15T03:14:37.899Z,9.75
2023-04-15T03:17:04.215Z,9.89
2023-04-15T03:19:30.796Z,9.97
2023-04-15T03:21:57.216Z,10.11
2023-04-15T03:24:24.719Z,10.17
2023-04-15T03:26:51.708Z,10.22
2023-04-15T03:29:18.022Z,10.31
2023-04-15T03:31:44.387Z,10.36
2023-04-15T03:34:10.775Z,10.33
2023-04-15T03:36:37.259Z,10.30
2023-04-15T03:39:04.356Z,10.29
2023-04-15T03:41:31.040Z,10.23
2023-04-15T03:43:57.490Z,10.28
2023-04-15T03:46:24.072Z,10.21
2023-04-15T03:48:50.557Z,10.15
2023-04-15T03:51:16.982Z,10.18
2023-04-15T03:53:43.490Z,10.13
2023-04-15T03:56:09.928Z,10.14
2023-04-15T03:58:36.637Z,10.12
2023-04-15T04:01:02.989Z,10.07
2023-04-15T04:03:29.628Z,10.07
2023-04-15T04:05:56.231Z,9.99
2023-04-15T04:08:23.609Z,9.95
2023-04-15T04:10:49.971Z,10.01
2023-04-15T04:13:16.376Z,9.97
2023-04-15T04:15:42.801Z,10.02
2023-04-15T04:18:09.302Z,10.05
2023-04-15T04:20:35.719Z,10.18
2023-04-15T04:23:02.051Z,10.14
2023-04-15T04:25:28.515Z,10.02
2023-04-15T04:27:54.867Z,10.05
2023-04-15T04:30:22.361Z,10.16
2023-04-15T04:32:49.727Z,10.17
2023-04-15T04:35:16.107Z,10.24
2023-04-15T04:37:42.608Z,10.28
2023-04-15T04:40:09.478Z,10.20
2023-04-15T04:42:38.556Z,10.14
2023-04-15T04:45:06.367Z,10.03
2023-04-15T04:47:32.777Z,10.01
2023-04-15T04:49:59.188Z,10.05
2023-04-15T04:52:25.593Z,10.01
2023-04-15T04:54:52.672Z,10.03
2023-04-15T04:57:19.010Z,10.06
2023-04-15T04:59:45.303Z,10.13
2023-04-15T05:02:12.359Z,10.18
2023-04-15T05:04:38.842Z,10.24
2023-04-15T05:07:05.210Z,10.26
2023-04-15T05:09:33.891Z,10.24
2023-04-15T05:12:01.361Z,10.26
2023-04-15T05:14:27.800Z,10.31
2023-04-15T05:16:54.435Z,10.34
2023-04-15T05:19:21.617Z,10.33
2023-04-15T05:21:48.296Z,10.36
2023-04-15T05:24:14.633Z,10.37
2023-04-15T05:26:42.430Z,10.35
2023-04-15T05:29:09.232Z,10.35
2023-04-15T05:31:36.103Z,10.29
2023-04-15T05:34:03.423Z,10.37
2023-04-15T05:36:29.777Z,10.44
2023-04-15T05:38:56.466Z,10.45
2023-04-15T05:41:22.872Z,10.49
2023-04-15T05:43:49.314Z,10.40
2023-04-15T05:46:15.959Z,10.24
2023-04-15T05:48:42.306Z,10.25
2023-04-15T05:51:08.822Z,10.23
2023-04-15T05:53:45.908Z,10.20
2023-04-15T05:56:12.322Z,10.14
2023-04-15T05:58:38.674Z,10.16
2023-04-15T06:01:05.612Z,10.29
2023-04-15T06:03:32.176Z,10.33
2023-04-15T06:05:58.554Z,9.84
2023-04-15T06:08:24.897Z,9.78
2023-04-15T06:10:51.777Z,9.68
2023-04-15T06:13:18.115Z,9.85
2023-04-15T06:15:44.527Z,9.91
2023-04-15T06:18:11.853Z,9.84
2023-04-15T06:20:38.463Z,9.89
2023-04-15T06:23:04.908Z,10.02
2023-04-15T06:25:31.296Z,10.10
2023-04-15T06:27:57.724Z,10.21
2023-04-15T06:30:24.555Z,10.18
2023-04-15T06:32:55.220Z,10.20
2023-04-15T06:35:34.818Z,9.91
2023-04-15T06:38:01.309Z,9.81
2023-04-15T06:40:28.158Z,9.71
2023-04-15T06:42:54.975Z,9.76
2023-04-15T06:45:22.400Z,9.63
2023-04-15T06:47:48.748Z,9.73
2023-04-15T06:50:15.084Z,9.74
2023-04-15T06:52:41.535Z,9.85
2023-04-15T06:55:08.132Z,9.63
2023-04-15T06:57:35.192Z,9.36
2023-04-15T07:00:02.382Z,9.26
2023-04-15T07:02:28.776Z,9.29
2023-04-15T07:04:55.565Z,9.27
2023-04-15T07:07:22.768Z,9.38
2023-04-15T07:09:49.214Z,9.62
2023-04-15T07:12:15.648Z,9.76
2023-04-15T07:14:42.285Z,9.90
2023-04-15T07:17:09.379Z,10.00
2023-04-15T07:19:35.936Z,10.23
2023-04-15T07:22:02.266Z,10.37
2023-04-15T07:24:28.713Z,10.44
2023-04-15T07:26:59.454Z,10.39
2023-04-15T07:29:27.109Z,10.45
2023-04-15T07:31:53.534Z,10.42
2023-04-15T07:34:21.580Z,10.48
2023-04-15T07:36:52.546Z,10.25
2023-04-15T07:39:19.008Z,10.22
2023-04-15T07:41:45.545Z,10.27
2023-04-15T07:44:12.579Z,10.45
2023-04-15T07:46:39.030Z,10.55
2023-04-15T07:49:08.649Z,10.52
2023-04-15T07:51:35.094Z,10.58
2023-04-15T07:54:01.492Z,10.61
2023-04-15T07:56:27.831Z,10.73
2023-04-15T07:58:56.015Z,10.72
2023-04-15T08:01:23.141Z,10.82
2023-04-15T08:03:49.698Z,10.84
2023-04-15T08:06:16.198Z,10.82
2023-04-15T08:08:43.064Z,10.86
2023-04-15T08:11:09.520Z,10.99
2023-04-15T08:13:36.119Z,11.16
2023-04-15T08:16:22.983Z,11.10
2023-04-15T08:18:50.326Z,11.14
2023-04-15T08:21:17.017Z,11.19
2023-04-15T08:23:43.870Z,11.37
2023-04-15T08:26:10.243Z,11.38
2023-04-15T08:28:38.284Z,11.42
2023-04-15T08:31:04.739Z,11.28
2023-04-15T08:33:31.146Z,11.30
2023-04-15T08:35:58.088Z,11.13
2023-04-15T08:38:24.611Z,11.17
2023-04-15T08:40:51.744Z,11.30
2023-04-15T08:43:26.371Z,11.40
2023-04-15T08:45:53.135Z,11.38
2023-04-15T08:48:19.687Z,11.34
2023-04-15T08:50:46.608Z,11.46
2023-04-15T08:53:13.666Z,11.60
2023-04-15T08:55:43.204Z,11.84
2023-04-15T08:58:10.656Z,11.96
2023-04-15T09:00:38.294Z,12.17
2023-04-15T09:03:05.559Z,12.42
2023-04-15T09:05:36.062Z,12.53
2023-04-15T09:08:02.656Z,12.77
2023-04-15T09:10:29.868Z,12.76
2023-04-15T09:12:56.713Z,12.56
2023-04-15T09:15:27.544Z,12.13
2023-04-15T09:17:54.211Z,12.20
2023-04-15T09:20:21.054Z,12.19
2023-04-15T09:22:48.461Z,11.93
2023-04-15T09:25:32.160Z,11.78
2023-04-15T09:28:01.060Z,11.71
2023-04-15T09:30:43.264Z,11.71
2023-04-15T09:33:11.125Z,11.71
2023-04-15T09:35:37.488Z,11.44
2023-04-15T09:38:07.727Z,11.37
2023-04-15T09:40:38.259Z,11.58
2023-04-15T09:43:05.415Z,11.74
2023-04-15T09:45:32.464Z,11.99
2023-04-15T09:47:59.527Z,12.13
2023-04-15T09:50:29.675Z,12.22
2023-04-15T09:52:56.336Z,12.13
2023-04-15T09:55:23.885Z,12.15
2023-04-15T09:57:50.286Z,12.13
2023-04-15T10:00:16.800Z,12.08
2023-04-15T10:02:43.476Z,12.06
2023-04-15T10:05:14.307Z,11.99
2023-04-15T10:07:42.858Z,11.93
2023-04-15T10:10:10.878Z,11.98
2023-04-15T10:12:38.360Z,11.89
2023-04-15T10:15:05.521Z,11.93
2023-04-15T10:17:37.059Z,11.90
2023-04-15T10:20:04.951Z,11.87
2023-04-15T10:22:32.572Z,11.84
2023-04-15T10:25:00.689Z,11.84
2023-04-15T10:27:27.791Z,11.78
2023-04-15T10:29:54.395Z,11.62
2023-04-15T10:32:21.343Z,11.52
2023-04-15T10:34:49.330Z,11.31
2023-04-15T10:37:20.996Z,11.33
2023-04-15T10:39:47.825Z,11.29
2023-04-15T10:42:15.985Z,10.99
2023-04-15T10:44:46.243Z,10.91
2023-04-15T10:47:13.960Z,10.94
2023-04-15T10:49:48.228Z,10.78
2023-04-15T10:52:16.071Z,10.89
2023-04-15T10:54:42.494Z,10.97
2023-04-15T10:57:10.453Z,11.01
2023-04-15T10:59:38.220Z,11.10
2023-04-15T11:02:05.998Z,11.13
2023-04-15T11:04:52.558Z,11.26
2023-04-15T11:07:38.496Z,11.38
2023-04-15T11:10:25.423Z,11.51
2023-04-15T11:12:54.369Z,11.65
2023-04-15T11:15:35.150Z,11.37
2023-04-15T11:18:12.014Z,11.26
2023-04-15T11:20:39.285Z,11.28
2023-04-15T11:23:14.237Z,11.15
2023-04-15T11:25:41.894Z,11.22
2023-04-15T11:28:08.296Z,11.22
2023-04-15T11:30:35.746Z,11.42
2023-04-15T11:33:03.906Z,11.26
2023-04-15T11:35:30.323Z,11.12
2023-04-15T11:37:57.202Z,11.12
2023-04-15T11:40:24.734Z,11.00
2023-04-15T11:43:11.362Z,10.93
2023-04-15T11:45:38.777Z,10.96
2023-04-15T11:48:12.058Z,10.90
2023-04-15T11:50:40.880Z,11.05
2023-04-15T11:53:08.633Z,11.04
2023-04-15T11:55:47.078Z,11.00
2023-04-15T11:58:16.873Z,11.12
2023-04-15T12:00:47.997Z,11.03
2023-04-15T12:03:14.615Z,11.00
2023-04-15T12:05:59.756Z,10.97
2023-04-15T12:08:26.062Z,11.06
2023-04-15T12:10:58.764Z,11.19
2023-04-15T12:13:27.544Z,11.17
2023-04-15T12:15:55.583Z,11.28
2023-04-15T12:18:22.592Z,11.48
2023-04-15T12:20:50.039Z,11.62
2023-04-15T12:23:28.906Z,11.77
2023-04-15T12:25:55.318Z,11.73
2023-04-15T12:28:22.542Z,11.73
2023-04-15T12:30:51.641Z,11.58
2023-04-15T12:33:18.635Z,11.32
2023-04-15T12:35:44.997Z,11.12
2023-04-15T12:38:11.420Z,11.11
2023-04-15T12:40:37.764Z,11.07
2023-04-15T12:43:04.161Z,10.90
2023-04-15T12:45:30.687Z,10.98
2023-04-15T12:47:57.278Z,11.21
2023-04-15T12:50:24.003Z,11.26
2023-04-15T12:52:50.916Z,11.33
2023-04-15T12:55:17.380Z,11.44
2023-04-15T12:57:43.717Z,11.47
2023-04-15T13:00:10.367Z,11.37
2023-04-15T13:02:37.134Z,11.50
2023-04-15T13:05:04.003Z,11.16
2023-04-15T13:07:30.314Z,11.15
2023-04-15T13:09:56.916Z,11.12
2023-04-15T13:12:23.924Z,11.18
2023-04-15T13:14:50.330Z,11.12
2023-04-15T13:17:19.373Z,11.29
2023-04-15T13:19:45.867Z,11.45
2023-04-15T13:22:12.626Z,11.40
2023-04-15T13:24:39.352Z,11.36
2023-04-15T13:27:05.742Z,11.21
2023-04-15T13:29:32.577Z,11.24
2023-04-15T13:32:00.337Z,11.37
2023-04-15T13:34:26.777Z,11.29
2023-04-15T13:36:54.161Z,11.22
2023-04-15T13:39:20.811Z,11.23
2023-04-15T13:41:48.412Z,10.99
2023-04-15T13:44:14.831Z,11.18
2023-04-15T13:46:42.588Z,11.40
2023-04-15T13:49:09.417Z,11.52
2023-04-15T13:51:38.560Z,11.63
2023-04-15T13:54:05.456Z,11.46
2023-04-15T13:56:32.275Z,11.41
2023-04-15T13:59:02.198Z,11.28
2023-04-15T14:01:28.971Z,11.35
2023-04-15T14:03:55.767Z,11.24
2023-04-15T14:06:22.472Z,11.50
2023-04-15T14:08:49.310Z,11.42
2023-04-15T14:11:17.436Z,11.52
2023-04-15T14:13:43.815Z,11.56
2023-04-15T14:16:10.472Z,11.56
2023-04-15T14:18:37.695Z,11.73
2023-04-15T14:21:05.199Z,11.71
2023-04-15T14:23:31.511Z,11.71
2023-04-15T14:25:57.801Z,11.70
2023-04-15T14:28:24.428Z,11.57
2023-04-15T14:30:50.843Z,11.36
2023-04-15T14:33:17.305Z,11.26
2023-04-15T14:35:43.715Z,11.40
2023-04-15T14:38:11.275Z,11.43
2023-04-15T14:40:37.986Z,11.38
2023-04-15T14:43:04.305Z,11.37
2023-04-15T14:45:30.660Z,11.51
2023-04-15T14:47:57.102Z,11.42
2023-04-15T14:50:23.984Z,11.35
2023-04-15T14:52:50.478Z,11.38
2023-04-15T14:55:16.792Z,11.37
2023-04-15T14:57:43.163Z,11.02
2023-04-15T15:00:10.707Z,10.86
2023-04-15T15:02:40.136Z,10.87
2023-04-15T15:05:10.923Z,10.83
2023-04-15T15:07:38.212Z,10.62
2023-04-15T15:10:04.929Z,10.76
2023-04-15T15:12:31.327Z,10.90
2023-04-15T15:14:57.810Z,11.10
2023-04-15T15:17:24.271Z,11.00
2023-04-15T15:19:50.922Z,10.90
2023-04-15T15:22:18.878Z,10.67
2023-04-15T15:24:46.487Z,10.64
2023-04-15T15:27:12.765Z,10.74
2023-04-15T15:29:39.164Z,10.89
2023-04-15T15:32:05.652Z,10.94
2023-04-15T15:34:32.125Z,11.03
2023-04-15T15:36:58.520Z,11.05
2023-04-15T15:39:24.870Z,10.74
2023-04-15T15:41:51.254Z,10.84
2023-04-15T15:44:17.650Z,10.71
2023-04-15T15:46:44.142Z,10.68
2023-04-15T15:49:11.439Z,10.82
2023-04-15T15:51:37.827Z,10.90
2023-04-15T15:54:04.180Z,10.92
2023-04-15T15:56:30.457Z,10.99
2023-04-15T15:58:56.813Z,11.06
2023-04-15T16:01:23.710Z,11.00
2023-04-15T16:03:50.273Z,10.91
2023-04-15T16:06:16.751Z,10.97
2023-04-15T16:08:43.055Z,10.87
2023-04-15T16:11:09.355Z,10.75
2023-04-15T16:13:36.112Z,10.55
2023-04-15T16:16:02.481Z,10.62
2023-04-15T16:18:28.854Z,10.74
2023-04-15T16:20:55.368Z,10.77
2023-04-15T16:23:24.056Z,10.57
2023-04-15T16:25:50.475Z,10.21
2023-04-15T16:28:26.490Z,10.28
2023-04-15T16:30:54.441Z,10.42
2023-04-15T16:33:21.209Z,10.48
2023-04-15T16:36:00.138Z,10.55
2023-04-15T16:38:26.515Z,10.67
2023-04-15T16:40:54.414Z,10.62
2023-04-15T16:43:20.858Z,10.60
2023-04-15T16:45:50.933Z,10.55
2023-04-15T16:48:19.895Z,10.71
2023-04-15T16:50:46.303Z,10.76
2023-04-15T16:53:12.817Z,10.72
2023-04-15T16:55:39.673Z,10.73
2023-04-15T16:58:08.342Z,10.74
2023-04-15T17:00:36.717Z,10.78
2023-04-15T17:03:03.456Z,10.77
2023-04-15T17:05:32.958Z,10.76
2023-04-15T17:07:59.350Z,10.66
2023-04-15T17:10:26.238Z,10.72
2023-04-15T17:12:55.231Z,10.81
2023-04-15T17:15:22.532Z,10.81
2023-04-15T17:17:48.947Z,10.73
2023-04-15T17:20:17.443Z,10.66
2023-04-15T17:22:44.072Z,10.61
2023-04-15T17:25:10.450Z,10.61
2023-04-15T17:27:38.688Z,10.61
2023-04-15T17:30:06.068Z,10.67
2023-04-15T17:32:34.591Z,10.72
2023-04-15T17:35:02.832Z,10.68
2023-04-15T17:37:29.213Z,10.67
2023-04-15T17:40:09.683Z,10.70
2023-04-15T17:42:36.017Z,10.73
2023-04-15T17:45:02.391Z,10.72
2023-04-15T17:47:28.760Z,10.70
2023-04-15T17:49:55.969Z,10.73
2023-04-15T17:52:22.510Z,10.72
2023-04-15T17:54:49.113Z,10.72
2023-04-15T17:57:15.523Z,10.77
2023-04-15T17:59:44.102Z,10.60
2023-04-15T18:02:11.695Z,10.55
2023-04-15T18:04:38.372Z,10.37
2023-04-15T18:07:05.160Z,10.07
2023-04-15T18:09:31.615Z,10.15
2023-04-15T18:11:58.373Z,10.01
2023-04-15T18:14:34.233Z,9.81
2023-04-15T18:17:02.470Z,9.95
2023-04-15T18:19:29.552Z,10.05
2023-04-15T18:21:55.981Z,10.07
2023-04-15T18:24:22.966Z,9.79
2023-04-15T18:26:49.694Z,9.49
2023-04-15T18:29:19.165Z,9.18
2023-04-15T18:31:45.520Z,9.12
2023-04-15T18:34:11.927Z,9.04
2023-04-15T18:36:38.344Z,9.02
2023-04-15T18:39:05.074Z,8.94
2023-04-15T18:41:31.710Z,9.01
2023-04-15T18:43:58.101Z,9.10
2023-04-15T18:46:24.458Z,9.14
2023-04-15T18:48:51.588Z,9.50
2023-04-15T18:51:18.794Z,9.56
2023-04-15T18:53:45.560Z,9.60
2023-04-15T18:56:16.077Z,9.71
2023-04-15T18:59:26.003Z,9.75
2023-04-15T19:01:43.409Z,9.85
2023-04-15T19:04:10.242Z,9.93
2023-04-15T19:06:36.672Z,9.96
2023-04-15T19:09:03.244Z,9.96
2023-04-15T19:11:29.769Z,9.91
2023-04-15T19:13:56.350Z,9.91
2023-04-15T19:16:23.575Z,9.94
2023-04-15T19:18:49.895Z,9.98
2023-04-15T19:21:16.224Z,9.99
2023-04-15T19:23:43.214Z,10.06
2023-04-15T19:26:10.311Z,10.05
2023-04-15T19:28:36.657Z,10.05
2023-04-15T19:31:03.086Z,10.07
2023-04-15T19:33:31.506Z,10.09
2023-04-15T19:36:00.913Z,9.99
2023-04-15T19:38:27.262Z,10.09
2023-04-15T19:40:53.641Z,10.01
2023-04-15T19:43:19.981Z,9.90
2023-04-15T19:45:49.208Z,9.99
2023-04-15T19:48:16.121Z,10.01
2023-04-15T19:50:42.870Z,9.93
2023-04-15T19:53:09.232Z,9.99
2023-04-15T19:55:36.043Z,9.98
2023-04-15T19:58:02.483Z,9.89
2023-04-15T20:00:28.892Z,9.85
2023-04-15T20:02:55.945Z,9.93
2023-04-15T20:05:22.585Z,9.97
2023-04-15T20:07:52.570Z,10.00
2023-04-15T20:10:19.663Z,10.11
2023-04-15T20:12:52.123Z,10.23
2023-04-15T20:15:19.628Z,10.09
2023-04-15T20:17:46.128Z,9.98
2023-04-15T20:20:12.523Z,9.85
2023-04-15T20:22:39.002Z,9.84
2023-04-15T20:25:05.682Z,9.92
2023-04-15T20:27:32.039Z,9.95
2023-04-15T20:29:58.427Z,9.95
2023-04-15T20:32:24.947Z,9.87
2023-04-15T20:34:51.290Z,9.83
2023-04-15T20:37:17.949Z,9.95
2023-04-15T20:39:44.281Z,10.06
2023-04-15T20:42:10.709Z,9.96
2023-04-15T20:44:38.633Z,9.87
2023-04-15T20:47:06.025Z,9.83
2023-04-15T20:49:36.178Z,9.78
2023-04-15T20:52:03.299Z,9.63
2023-04-15T20:54:29.796Z,9.59
2023-04-15T20:56:57.184Z,9.51
2023-04-15T20:59:24.048Z,9.59
2023-04-15T21:01:50.763Z,9.59
2023-04-15T21:04:17.289Z,9.66
2023-04-15T21:06:43.666Z,9.77
2023-04-15T21:09:10.280Z,9.85
2023-04-15T21:14:07.206Z,9.74
2023-04-15T21:16:34.246Z,9.49
2023-04-15T21:19:00.927Z,9.42
2023-04-15T21:21:28.084Z,9.52
2023-04-15T21:23:54.475Z,9.51
2023-04-15T21:26:20.851Z,9.58
2023-04-15T21:28:47.235Z,9.54
2023-04-15T21:31:14.026Z,9.69
2023-04-15T21:33:40.364Z,9.84
2023-04-15T21:36:07.735Z,9.83
2023-04-15T21:38:34.236Z,9.88
2023-04-15T21:41:01.679Z,9.93
2023-04-15T21:43:28.024Z,9.96
2023-04-15T21:46:23.006Z,9.97
2023-04-15T21:48:40.746Z,9.98
2023-04-15T21:51:07.732Z,9.93
2023-04-15T21:53:34.057Z,9.75
2023-04-15T21:56:00.402Z,9.64
2023-04-15T21:58:26.742Z,9.63
2023-04-15T22:00:57.471Z,9.72
2023-04-15T22:03:24.474Z,9.75
2023-04-15T22:05:51.122Z,9.53
2023-04-15T22:08:17.411Z,9.38
2023-04-15T22:10:44.095Z,9.43
2023-04-15T22:13:11.098Z,9.38
2023-04-15T22:15:37.612Z,9.17
2023-04-15T22:18:04.533Z,9.03
2023-04-15T22:20:31.488Z,8.65
2023-04-15T22:22:58.105Z,8.22
2023-04-15T22:25:24.453Z,8.21
2023-04-15T22:27:50.929Z,8.27
2023-04-15T22:30:17.336Z,8.46
2023-04-15T22:32:44.068Z,8.75
2023-04-15T22:35:10.427Z,8.83
2023-04-15T22:37:36.779Z,8.99
2023-04-15T22:40:03.551Z,9.05
2023-04-15T22:42:29.869Z,9.07
2023-04-15T22:44:56.182Z,9.12
2023-04-15T22:47:23.534Z,9.17
2023-04-15T22:49:49.840Z,9.25
2023-04-15T22:52:29.506Z,9.25
2023-04-15T22:54:56.653Z,9.31
2023-04-15T22:57:23.853Z,9.18
2023-04-15T22:59:50.404Z,9.22
2023-04-15T23:02:16.976Z,9.30
2023-04-15T23:04:43.507Z,9.32
2023-04-15T23:07:09.863Z,9.36
2023-04-15T23:09:36.239Z,9.33
2023-04-15T23:12:03.322Z,9.40
2023-04-15T23:14:30.086Z,9.38
2023-04-15T23:16:57.114Z,9.31
2023-04-15T23:19:24.022Z,9.45
2023-04-15T23:21:50.489Z,9.35
2023-04-15T23:24:17.040Z,9.36
2023-04-15T23:26:43.618Z,9.33
2023-04-15T23:29:10.208Z,9.36
2023-04-15T23:31:36.783Z,9.33
2023-04-15T23:34:03.906Z,9.38
2023-04-15T23:36:30.301Z,9.52
2023-04-15T23:38:56.592Z,9.53
2023-04-15T23:41:23.864Z,9.48
2023-04-15T23:43:50.705Z,9.49
2023-04-15T23:46:17.218Z,9.39
2023-04-15T23:48:43.668Z,9.30
2023-04-15T23:51:10.057Z,9.21
2023-04-15T23:53:36.423Z,9.17
2023-04-15T23:56:02.825Z,9.05
2023-04-15T23:58:29.255Z,9.11
